FLIGHT INFORMATION
Cathay Pacific

CPA1

At Arrival Gate

KPAE
 VHHH
DATE: 2018-08-18
GATE:  -
GATE DEPARTURE: 19:00
TAKEOFF: 19:10
DATE: 2018-08-19
GATE:  -
LANDING: 07:38
GATE ARRIVAL: 07:53
FLIGHT DATA
Crew: MICHAEL ROTH
Speed: 508 kts Altitude: 40000 ft
Stage Length: 5622 nm
Route: 
Block Time: 12.9 Flight Time: 12.5
Fuel Used: 220573 LB
TRACK DATA
50000 FT1000 KTAltitudeSpeed
AIRCRAFT INFORMATION
Aircraft Type: B748F
Registration: B-LJA
SELCAL: CRHM MSN/LN: 39238 / 1427
Operator: CATHAY PACIFIC
Flights: 4 Block Time: 25 Flight Time: 23.7
Fuel Used: 508564 LB
  • DEPARTURE INFORMATION
    Date: 2018-08-18
    Airport: KPAE
    Gate:  -
    Gate Departure: 19:00
    Takeoff: 19:10
    ARRIVAL INFORMATION
    Date: 2018-08-19
    Airport: VHHH
    Gate:  -
    Landing: 07:38
    Gate Arrival: 07:53
  • FLIGHT DATA
    Crew: MICHAEL ROTH
    Speed: 508 kts Altitude: 40000 ft
    Stage Length: 3036 nm
    Route: 
    Block Time: 12.9 Flight Time: 12.5
    Fuel Used: 220573 LB
  • AIRCRAFT INFORMATION
    Aircraft Type: B748F
    Registration: B-LJA
    SELCAL: CRHM MSN/LN: 39238 / 1427
    Operator: Cathay Pacific
    Flights: 4 Block Time: 25 Flight Time: 23.7
    Fuel Used: 508564 LB

DATALINK LOG | Newest first | Current as of: 2020-05-27 02:11:30
LABEL ID SEQUENCE CONTENT Dn/Up
QD534207:53 45.4▼ Dn
QC384207:38▼ Dn
462851/OV /TM 0728 /FL100 /TP B748 /SK BKN /WX RN VIS CLR /TA 29 /WV 250/10 /TB LGT /RM STORMS RAIN AT 10K▼ Dn
GA2639ADVANCED GATE ASSIGNMENTS NOT YET AVAILABLE AT THIS AIRPORT▲ Up
GR0115VHHH▼ Dn
2U1441VHHH 190300Z 24007KT 9999 FEW012 SCT025 29/27 Q1003 NOSIG▲ Up
2S0471VHHH▼ Dn
2U1925VHHH 190000Z VRB03KT 9999 -TSRA FEW008 FEW012CB SCT020 27/26 Q1003 TEMPO 3000 -TSRA SHRA FEW010CB SCT020▲ Up
2S1758VHHH▼ Dn
460834/OV XXX /TM 2208 /FL360 /TP B748 /SK OVC /TA -23 /WV 154/35 /TB LGT /RM FEW BUMPS AROUND▼ Dn
QB101219:10▼ Dn
5U0622TAF VHHH 181100Z 1812/1918 23010KT 9999 FEW015 SCT030 TX32/1906Z TN27/1822Z TEMPO 1812/1824 VRB05KT TEMPO 1820/1902 3000 -TSRA SHRA FEW010CB SCT020 TEMPO 1902/1906 4000 SHRA FEW012CB SCT025 TEMPO 1912/1918 VRB05KT▲ Up
5U0622KPAE 181142Z 1812/1912 34003KT P6SM SKC FM181600 36004KT P6SM SKC FM181800 34006KT P6SM SKC FM190200 VRB03KT P6SM SKC▲ Up
5S0513KPAE VHHH▼ Dn
2U0622KPAE 181653Z VRB03KT 9SM CLR 18/13 A3024 RMK AO2 SLP240 T01780128▲ Up
2S0459KPAE▼ Dn
QA004319:00 266▼ Dn


AIRCRAFT HISTORY
FLIGHT DATE FLIGHT NUMBER ORIGIN DESTINATION ROUTE BLOCK TIME FLIGHT TIME FUEL USED (LB) PILOT
2019-10-26(No flight number)EDDF EGLL EDDF SOBRA ULKIG RUDOT BITBU MAKIK GOPAS DEMUL RITAX REMBA BUB DENUT BUB45 COA KEGIT SASKI INLOD SUMUM LOGAN EGLL1.41.130534Steven James
2019-09-08CPA908VHHX EDDF VHHX BEKOL IDUMA SHL YIN VEROK NODOG QP MAMSI SJG AKNAV ELKAL ESNIB KAGRA KWE QNX IDSEG UKEGO XYO ZYG WFX JTG CDX OMBON ELPAN BESMI XIXAN SUNUV BUKPU ANDIM LELUX LAXEV NOGEX OMGUP IGDON TODOD NIXUK IBANO BIKNO IPMUN KEXAB FKG VARMI UGPEL IKARA OMKEN SALMO PIBIG TCH SARIN AGUSA TOLKI AGZ OSNER DODEM TAGAL GORBO ULKAP DIMUT KRG BANOS AST DIDAL ATBAN ATNON LATKO GITNA DOKUT KST TITUR OLMAD LANUD NINRA NOGBA RG LUNIN TILMU IPMAS TEMBE UGDOR RITOP UW UD MB RP CW ABOKA MF DIPAT LAPUR AR MAKSI BG TU SUPEK TEGLU LEGSI BENIM RAMBE LAFAT UPASI VABER SUW KULEK MAGAN IDEXU GOVEN LUROS POGAB OLBIK TADUV OSKAT LASTO ABLUM ROBEL GAPLA DEMAB SOLVU KERAX EDDF11.911.6248724Chris Makris
2018-08-27CPA2VHHH VHHX 0.60.38732-HIDDEN-
2018-08-18CPA1KPAE VHHH 12.912.5220573Michael Roth